Time;durP1;ratioP1;P1;durP2;ratioP2;P2;SDS_P1;SDS_P2;PMS_P1;PMS_P2;Temp;Humidity;BMP_temperature;BMP_pressure;BME280_temperature;BME280_humidity;BME280_pressure;Samples;Min_cycle;Max_cycle;Signal;HPM_P1;HPM_P2
2021/07/09 00:01:56;;;;;;;7.03;2.50;;;25.80;43.40;;;;;;4327773;33;20090;-37
2021/07/09 00:04:24;;;;;;;2.60;1.55;;;25.80;44.10;;;;;;4283533;33;20110;-36
2021/07/09 00:06:51;;;;;;;6.80;3.70;;;25.80;43.10;;;;;;4283605;33;20112;-37
2021/07/09 00:09:17;;;;;;;4.90;2.65;;;25.80;42.90;;;;;;4271594;33;20080;-38
2021/07/09 00:11:47;;;;;;;2.78;1.60;;;25.80;42.80;;;;;;4271646;33;20118;-37
2021/07/09 00:14:15;;;;;;;5.03;3.15;;;25.80;42.60;;;;;;4284201;33;20555;-37
2021/07/09 00:16:43;;;;;;;2.75;1.33;;;25.80;42.50;;;;;;4283848;33;20075;-36
2021/07/09 00:19:10;;;;;;;2.78;0.73;;;25.80;42.10;;;;;;4283915;33;20750;-38
2021/07/09 00:21:36;;;;;;;3.60;2.72;;;25.90;42.40;;;;;;4271902;33;20076;-37
2021/07/09 00:24:04;;;;;;;4.28;1.25;;;25.90;42.50;;;;;;4283745;33;20079;-36
2021/07/09 00:26:31;;;;;;;4.78;2.65;;;25.90;42.70;;;;;;4284024;33;20150;-35
2021/07/09 00:28:58;;;;;;;6.68;3.17;;;25.90;42.80;;;;;;4298129;33;20071;-37
2021/07/09 00:31:25;;;;;;;3.95;3.20;;;25.90;42.90;;;;;;4286265;33;20075;-37
2021/07/09 00:33:52;;;;;;;11.68;3.42;;;26.00;43.00;;;;;;4286117;33;20110;-37
2021/07/09 00:36:18;;;;;;;5.93;3.10;;;26.00;43.00;;;;;;4324969;33;20170;-38
2021/07/09 00:38:45;;;;;;;9.02;3.65;;;26.00;43.00;;;;;;4344479;33;20095;-38
2021/07/09 00:41:11;;;;;;;6.50;3.58;;;25.90;43.00;;;;;;4344143;33;20061;-37
2021/07/09 00:43:38;;;;;;;7.50;3.47;;;26.00;43.30;;;;;;4330162;33;20463;-37
2021/07/09 00:46:04;;;;;;;8.23;3.08;;;26.00;43.30;;;;;;4330504;33;20101;-37
2021/07/09 00:48:31;;;;;;;9.10;3.75;;;26.00;43.10;;;;;;4311993;33;20079;-38
2021/07/09 00:51:04;;;;;;;6.75;3.60;;;26.10;43.20;;;;;;4312445;33;20078;-37
2021/07/09 00:53:31;;;;;;;5.25;3.30;;;26.10;42.90;;;;;;4312397;33;20075;-38
2021/07/09 00:55:57;;;;;;;5.00;3.70;;;26.20;42.80;;;;;;4312267;33;20480;-36
2021/07/09 00:58:24;;;;;;;6.78;3.58;;;26.30;42.80;;;;;;4309090;33;20081;-37
2021/07/09 01:00:50;;;;;;;7.95;3.97;;;26.30;42.70;;;;;;4314577;33;20079;-37
2021/07/09 01:03:17;;;;;;;8.02;4.15;;;26.30;42.70;;;;;;4314597;33;20062;-38
2021/07/09 01:05:44;;;;;;;6.47;4.90;;;26.30;42.60;;;;;;4314366;33;20546;-37
2021/07/09 01:08:12;;;;;;;9.00;3.47;;;26.30;42.70;;;;;;4314402;33;20168;-37
2021/07/09 01:10:41;;;;;;;7.47;4.12;;;26.30;42.80;;;;;;4314377;33;20091;-37
2021/07/09 01:13:07;;;;;;;6.07;3.92;;;26.30;42.90;;;;;;4326608;33;20075;-37
2021/07/09 01:15:34;;;;;;;6.68;4.07;;;26.30;43.00;;;;;;4326473;33;20521;-36
2021/07/09 01:18:01;;;;;;;7.22;4.20;;;26.30;43.10;;;;;;4326869;33;20145;-38
2021/07/09 01:20:28;;;;;;;8.27;3.97;;;26.30;43.20;;;;;;4302078;33;20521;-36
2021/07/09 01:22:54;;;;;;;6.32;3.55;;;26.30;43.30;;;;;;4314204;33;20132;-39
2021/07/09 01:25:26;;;;;;;6.37;4.15;;;26.40;43.50;;;;;;4309458;32;20097;-38
2021/07/09 01:28:06;;;;;;;4.47;3.28;;;26.30;43.50;;;;;;4344934;32;20524;-36
2021/07/09 01:30:33;;;;;;;3.60;1.62;;;26.30;43.70;;;;;;4358789;32;20518;-37
2021/07/09 01:33:00;;;;;;;8.05;4.28;;;26.30;43.80;;;;;;4345081;32;20058;-38
2021/07/09 01:35:27;;;;;;;7.22;4.35;;;26.30;44.10;;;;;;4344179;32;20150;-37
2021/07/09 01:38:00;;;;;;;5.97;3.50;;;26.30;44.20;;;;;;4344114;32;20074;-37
2021/07/09 01:40:26;;;;;;;11.35;4.80;;;26.30;44.20;;;;;;4345279;32;20156;-37
2021/07/09 01:42:53;;;;;;;8.68;4.70;;;26.30;44.10;;;;;;4358581;32;20096;-37
2021/07/09 01:45:20;;;;;;;11.52;5.00;;;26.40;43.90;;;;;;4358080;32;20062;-37
2021/07/09 01:47:47;;;;;;;8.50;4.80;;;26.50;43.70;;;;;;4358198;32;20061;-37
2021/07/09 01:50:13;;;;;;;6.43;4.90;;;26.60;43.50;;;;;;4358340;32;20202;-37
2021/07/09 01:52:40;;;;;;;8.50;4.28;;;26.80;43.20;;;;;;4344045;32;20082;-37
2021/07/09 01:55:06;;;;;;;10.52;5.10;;;27.00;42.90;;;;;;4344474;32;20145;-37
2021/07/09 01:57:33;;;;;;;9.02;5.22;;;27.30;42.60;;;;;;4354045;32;20129;-37
2021/07/09 02:00:00;;;;;;;6.93;3.20;;;27.50;42.30;;;;;;4343201;33;20103;-37
2021/07/09 02:02:27;;;;;;;9.38;4.10;;;27.70;41.80;;;;;;4296424;33;20111;-37
2021/07/09 02:04:55;;;;;;;7.10;4.35;;;27.90;41.50;;;;;;4284610;33;20070;-37
2021/07/09 02:07:23;;;;;;;2.95;1.58;;;28.00;41.40;;;;;;4284485;33;20512;-37
2021/07/09 02:09:54;;;;;;;8.75;4.57;;;28.00;41.30;;;;;;4296961;33;20076;-37
2021/07/09 02:12:23;;;;;;;11.12;5.25;;;28.10;41.50;;;;;;4297138;33;20106;-37
2021/07/09 02:14:50;;;;;;;8.75;2.80;;;28.20;41.60;;;;;;4284509;33;20075;-37
2021/07/09 02:17:18;;;;;;;5.22;3.42;;;28.20;41.30;;;;;;4296735;33;20154;-36
2021/07/09 02:19:45;;;;;;;6.75;4.07;;;28.20;41.30;;;;;;4284617;33;20067;-37
2021/07/09 02:22:13;;;;;;;5.50;2.85;;;28.30;41.50;;;;;;4272938;33;20078;-36
2021/07/09 02:24:40;;;;;;;12.95;3.40;;;28.30;41.20;;;;;;4296856;33;20087;-36
2021/07/09 02:27:07;;;;;;;2.37;1.58;;;28.30;41.10;;;;;;4273096;33;20138;-37
2021/07/09 02:29:34;;;;;;;5.80;2.80;;;28.40;40.90;;;;;;4272951;33;20086;-36
2021/07/09 02:32:02;;;;;;;4.72;2.12;;;28.30;40.70;;;;;;4296688;33;20072;-36
2021/07/09 02:34:29;;;;;;;2.75;1.77;;;28.40;40.90;;;;;;4325655;33;20102;-37
2021/07/09 02:36:56;;;;;;;6.32;3.25;;;28.40;40.80;;;;;;4328071;33;20122;-37
2021/07/09 02:39:27;;;;;;;14.50;4.80;;;28.50;40.80;;;;;;4314935;33;20051;-37
2021/07/09 02:41:54;;;;;;;11.23;5.15;;;28.60;41.10;;;;;;4314710;33;20068;-37
2021/07/09 02:44:24;;;;;;;10.25;3.12;;;28.70;41.10;;;;;;4314731;33;20067;-37
2021/07/09 02:46:51;;;;;;;4.87;2.12;;;28.70;40.90;;;;;;4328023;33;20066;-37
2021/07/09 02:49:18;;;;;;;5.30;2.15;;;28.70;41.10;;;;;;4316537;33;20150;-37
2021/07/09 02:51:45;;;;;;;5.57;1.55;;;28.80;41.40;;;;;;4305214;33;20070;-37
2021/07/09 02:54:12;;;;;;;12.77;4.10;;;28.80;41.50;;;;;;4317449;33;20544;-36
2021/07/09 02:56:38;;;;;;;3.08;2.20;;;28.90;41.80;;;;;;4317379;33;20500;-37
2021/07/09 02:59:05;;;;;;;2.55;1.37;;;28.90;41.90;;;;;;4344447;33;20069;-37
2021/07/09 03:01:31;;;;;;;3.72;2.35;;;28.90;41.90;;;;;;4331750;33;20067;-37
2021/07/09 03:03:58;;;;;;;6.47;3.20;;;28.90;41.50;;;;;;4332012;33;20075;-37
2021/07/09 03:06:24;;;;;;;4.28;2.60;;;28.90;41.70;;;;;;4354220;32;20082;-37
2021/07/09 03:08:51;;;;;;;9.13;5.18;;;28.90;41.30;;;;;;4346404;32;20074;-36
2021/07/09 03:11:18;;;;;;;5.90;1.90;;;29.00;41.60;;;;;;4360293;32;20138;-37
2021/07/09 03:13:44;;;;;;;4.03;2.25;;;29.00;41.50;;;;;;4360184;32;20091;-36
2021/07/09 03:16:11;;;;;;;2.30;1.25;;;29.20;41.40;;;;;;4360167;32;20057;-35
2021/07/09 03:18:37;;;;;;;4.97;2.65;;;29.30;41.20;;;;;;4360320;32;20068;-37
2021/07/09 03:21:04;;;;;;;5.37;1.75;;;29.30;40.90;;;;;;4346331;32;20063;-38
2021/07/09 03:23:30;;;;;;;10.15;3.03;;;29.50;40.80;;;;;;4346230;32;20078;-38
2021/07/09 03:26:00;;;;;;;2.00;1.55;;;29.50;40.70;;;;;;4360183;32;20092;-37
2021/07/09 03:28:27;;;;;;;3.55;2.55;;;29.50;40.30;;;;;;4360170;32;20054;-38
2021/07/09 03:30:54;;;;;;;4.80;2.78;;;29.60;40.80;;;;;;4346140;32;20063;-38
2021/07/09 03:33:20;;;;;;;6.47;1.90;;;29.70;40.70;;;;;;4359978;32;20074;-37
2021/07/09 03:35:47;;;;;;;9.85;4.78;;;29.70;40.90;;;;;;4360050;32;20094;-37
2021/07/09 03:38:14;;;;;;;10.38;5.18;;;29.80;40.90;;;;;;4345843;32;20106;-37
2021/07/09 03:40:40;;;;;;;8.82;5.00;;;29.90;40.90;;;;;;4360120;32;20074;-36
2021/07/09 03:43:07;;;;;;;11.12;6.70;;;30.00;40.80;;;;;;4360023;32;20087;-37
2021/07/09 03:45:33;;;;;;;6.22;4.78;;;30.20;41.00;;;;;;4327588;33;20070;-37
2021/07/09 03:48:00;;;;;;;5.12;3.60;;;30.40;40.90;;;;;;4327878;33;20067;-37
2021/07/09 03:50:26;;;;;;;6.35;3.30;;;30.60;40.30;;;;;;4327775;33;20082;-37
2021/07/09 03:52:53;;;;;;;7.55;4.00;;;30.70;40.00;;;;;;4315026;33;20071;-37
2021/07/09 03:55:19;;;;;;;6.18;2.60;;;30.80;39.80;;;;;;4312501;33;20075;-36
2021/07/09 03:57:46;;;;;;;2.95;1.25;;;30.70;39.30;;;;;;4312791;33;20107;-37
2021/07/09 04:00:14;;;;;;;20.27;9.25;;;30.70;39.50;;;;;;4312693;33;20067;-37
2021/07/09 04:02:40;;;;;;;7.72;4.57;;;30.70;39.90;;;;;;4313027;33;20337;-37
2021/07/09 04:05:08;;;;;;;8.23;5.47;;;30.80;39.90;;;;;;4300469;33;20087;-38
2021/07/09 04:07:35;;;;;;;7.07;1.75;;;31.00;40.00;;;;;;4300866;33;20120;-37
2021/07/09 04:10:02;;;;;;;13.43;6.25;;;31.10;39.60;;;;;;4312961;33;20083;-38
2021/07/09 04:12:28;;;;;;;8.63;5.60;;;31.20;39.30;;;;;;4312731;33;20082;-38
2021/07/09 04:14:54;;;;;;;6.93;4.90;;;31.30;39.30;;;;;;4300196;33;20142;-38
2021/07/09 04:17:21;;;;;;;8.68;5.30;;;31.40;39.40;;;;;;4307076;33;20099;-38
2021/07/09 04:19:49;;;;;;;9.80;6.30;;;31.40;39.40;;;;;;4300557;33;20234;-37
2021/07/09 04:22:16;;;;;;;11.98;6.95;;;31.50;39.40;;;;;;4312612;33;20067;-36
2021/07/09 04:24:43;;;;;;;10.00;6.37;;;31.70;39.40;;;;;;4312850;33;20163;-39
2021/07/09 04:27:09;;;;;;;9.15;5.57;;;32.00;38.80;;;;;;4324647;33;20660;-38
2021/07/09 04:29:36;;;;;;;8.68;5.65;;;32.20;37.90;;;;;;4326786;33;20609;-39
2021/07/09 04:32:03;;;;;;;7.93;5.68;;;32.50;37.40;;;;;;4327352;33;20083;-38
2021/07/09 04:34:29;;;;;;;12.13;7.12;;;32.60;36.90;;;;;;4326811;33;20087;-38
2021/07/09 04:36:55;;;;;;;20.12;7.03;;;32.80;37.00;;;;;;4326836;33;20156;-37
2021/07/09 04:39:22;;;;;;;8.32;6.22;;;33.10;37.00;;;;;;4327347;33;20079;-37
2021/07/09 04:41:49;;;;;;;13.95;7.37;;;33.20;36.20;;;;;;4326557;33;20299;-37
2021/07/09 04:44:15;;;;;;;8.13;5.30;;;33.30;37.00;;;;;;4327191;33;20229;-39
2021/07/09 04:46:42;;;;;;;10.43;6.20;;;33.40;35.70;;;;;;4327143;33;20588;-36
2021/07/09 04:49:09;;;;;;;8.07;5.00;;;33.40;35.80;;;;;;4326643;33;20558;-39
2021/07/09 04:51:35;;;;;;;10.18;6.40;;;33.50;36.00;;;;;;4326875;33;20154;-38
2021/07/09 04:54:01;;;;;;;12.37;6.32;;;33.60;35.80;;;;;;4332407;32;20466;-38
2021/07/09 04:56:28;;;;;;;5.75;4.82;;;33.60;36.00;;;;;;4358455;32;20070;-38
2021/07/09 04:58:54;;;;;;;7.72;5.53;;;33.70;35.00;;;;;;4330175;33;21331;-39
2021/07/09 05:01:21;;;;;;;8.40;6.53;;;33.70;34.80;;;;;;4343958;33;20067;-38
2021/07/09 05:03:47;;;;;;;9.18;5.40;;;33.80;35.10;;;;;;4343817;33;20161;-38
2021/07/09 05:06:15;;;;;;;10.98;6.37;;;33.90;34.30;;;;;;4343658;33;20496;-38
2021/07/09 05:08:41;;;;;;;8.15;5.28;;;34.00;34.80;;;;;;4330370;33;20067;-38
2021/07/09 05:11:08;;;;;;;15.43;4.37;;;34.00;34.80;;;;;;4342985;33;20170;-38
2021/07/09 05:13:38;;;;;;;14.98;6.57;;;34.00;34.70;;;;;;4343998;33;20077;-37
2021/07/09 05:16:06;;;;;;;5.20;4.55;;;34.20;34.50;;;;;;4343654;33;20095;-37
2021/07/09 05:18:33;;;;;;;13.05;5.93;;;34.30;34.50;;;;;;4342061;33;20510;-37
2021/07/09 05:21:01;;;;;;;17.40;6.47;;;34.50;34.60;;;;;;4329861;33;20168;-39
2021/07/09 05:23:27;;;;;;;8.32;6.20;;;34.70;34.40;;;;;;4343637;33;20082;-38
2021/07/09 05:25:54;;;;;;;7.50;5.60;;;35.00;34.20;;;;;;4343664;33;20482;-38
2021/07/09 05:28:20;;;;;;;8.90;4.80;;;35.10;34.10;;;;;;4343000;33;20519;-37
2021/07/09 05:30:47;;;;;;;10.43;4.93;;;35.10;33.50;;;;;;4343687;33;20593;-38
2021/07/09 05:33:16;;;;;;;4.05;2.50;;;35.10;33.00;;;;;;4284895;33;20087;-39
2021/07/09 05:35:44;;;;;;;5.57;4.30;;;35.20;33.40;;;;;;4297231;33;20076;-38
2021/07/09 05:38:10;;;;;;;14.55;5.30;;;35.10;32.90;;;;;;4284789;33;20204;-39
2021/07/09 05:40:37;;;;;;;12.60;7.22;;;35.20;32.40;;;;;;4297220;33;20107;-38
2021/07/09 05:43:03;;;;;;;6.85;4.18;;;35.30;32.80;;;;;;4297262;33;20063;-38
2021/07/09 05:45:30;;;;;;;17.35;5.22;;;35.30;32.70;;;;;;4284978;33;20071;-38
2021/07/09 05:47:57;;;;;;;9.13;4.72;;;35.40;32.50;;;;;;4296889;33;20169;-38
2021/07/09 05:50:23;;;;;;;8.40;5.65;;;35.50;31.70;;;;;;4297026;33;20064;-38
2021/07/09 05:52:50;;;;;;;8.27;4.75;;;35.50;31.40;;;;;;4296903;33;20142;-37
2021/07/09 05:55:16;;;;;;;8.52;6.00;;;35.50;31.70;;;;;;4297030;33;20084;-38
2021/07/09 05:57:43;;;;;;;5.43;4.32;;;35.60;31.80;;;;;;4301700;33;20230;-38
2021/07/09 06:00:10;;;;;;;6.03;4.90;;;35.60;31.80;;;;;;4299327;33;20063;-38
2021/07/09 06:02:37;;;;;;;7.53;3.97;;;35.70;31.40;;;;;;4311300;33;20094;-38
2021/07/09 06:05:05;;;;;;;5.55;2.22;;;35.80;30.20;;;;;;4337948;33;20066;-38
2021/07/09 06:07:32;;;;;;;8.63;3.80;;;35.70;29.80;;;;;;4343176;33;20086;-38
2021/07/09 06:09:58;;;;;;;7.30;3.87;;;35.70;29.60;;;;;;4343221;33;20067;-37
2021/07/09 06:12:25;;;;;;;6.45;2.80;;;35.70;30.00;;;;;;4317107;33;20062;-37
2021/07/09 06:14:51;;;;;;;2.70;1.60;;;35.60;29.80;;;;;;4341610;33;20059;-37
2021/07/09 06:17:18;;;;;;;5.25;3.58;;;35.70;29.30;;;;;;4343339;33;20160;-38
2021/07/09 06:19:45;;;;;;;1.95;1.05;;;35.80;29.30;;;;;;4343174;33;20534;-38
2021/07/09 06:22:11;;;;;;;4.65;2.72;;;35.80;29.40;;;;;;4330036;33;20109;-39
2021/07/09 06:24:38;;;;;;;4.90;1.95;;;35.80;29.20;;;;;;4346045;33;20148;-38
2021/07/09 06:27:05;;;;;;;6.47;1.58;;;35.80;29.50;;;;;;4332141;33;20603;-38
2021/07/09 06:29:31;;;;;;;1.77;1.10;;;35.80;29.40;;;;;;4332393;33;20522;-36
2021/07/09 06:31:58;;;;;;;11.98;3.33;;;35.80;29.00;;;;;;4345809;33;20070;-39
2021/07/09 06:34:24;;;;;;;5.57;2.92;;;35.80;29.30;;;;;;4346103;33;20078;-38
2021/07/09 06:36:51;;;;;;;5.75;3.85;;;36.00;29.30;;;;;;4346186;33;20127;-38
2021/07/09 06:39:18;;;;;;;8.93;2.17;;;36.20;28.90;;;;;;4346108;33;20078;-38
2021/07/09 06:41:44;;;;;;;6.32;3.78;;;36.10;29.10;;;;;;4331969;33;20142;-43
2021/07/09 06:44:11;;;;;;;7.25;4.93;;;36.20;28.90;;;;;;4346072;33;20102;-39
2021/07/09 06:46:39;;;;;;;4.35;1.42;;;36.40;29.10;;;;;;4345539;33;20091;-39
2021/07/09 06:49:05;;;;;;;3.83;3.05;;;36.50;28.20;;;;;;4344079;33;20078;-39
2021/07/09 06:51:32;;;;;;;3.92;2.87;;;36.60;28.20;;;;;;4332362;33;20051;-38
2021/07/09 06:53:58;;;;;;;6.18;2.97;;;36.60;28.30;;;;;;4345712;33;20156;-38
2021/07/09 06:56:25;;;;;;;4.97;2.80;;;36.50;28.30;;;;;;4345718;33;20539;-37
2021/07/09 06:58:51;;;;;;;4.78;2.03;;;36.60;28.00;;;;;;4345868;33;20083;-38
2021/07/09 07:01:18;;;;;;;4.20;1.50;;;36.50;27.50;;;;;;4313465;33;20075;-38
2021/07/09 07:03:44;;;;;;;4.45;2.72;;;36.40;27.50;;;;;;4313794;33;20548;-37
2021/07/09 07:06:12;;;;;;;3.00;1.77;;;36.30;27.50;;;;;;4312922;33;20080;-37
2021/07/09 07:08:39;;;;;;;7.25;2.12;;;36.40;28.20;;;;;;4313769;33;20080;-39
2021/07/09 07:11:06;;;;;;;2.60;1.50;;;36.40;28.30;;;;;;4313384;33;20077;-38
2021/07/09 07:13:33;;;;;;;6.07;4.05;;;36.50;28.60;;;;;;4313606;33;20130;-38
2021/07/09 07:16:00;;;;;;;3.50;1.95;;;36.60;28.20;;;;;;4283828;33;20114;-37
2021/07/09 07:18:26;;;;;;;4.90;3.35;;;36.80;28.40;;;;;;4284484;33;20068;-39
2021/07/09 07:20:55;;;;;;;5.12;2.20;;;36.80;27.80;;;;;;4284294;33;20098;-38
2021/07/09 07:23:22;;;;;;;4.87;1.15;;;36.80;27.80;;;;;;4284781;33;20092;-38
2021/07/09 07:25:49;;;;;;;6.43;2.03;;;36.90;28.00;;;;;;4284203;33;20110;-38
2021/07/09 07:28:16;;;;;;;7.82;4.00;;;36.90;27.60;;;;;;4284313;33;20096;-38
2021/07/09 07:30:42;;;;;;;2.87;1.37;;;36.90;27.30;;;;;;4284267;33;20618;-37
2021/07/09 07:33:11;;;;;;;4.90;1.95;;;36.90;27.90;;;;;;4308754;33;20078;-39
2021/07/09 07:35:39;;;;;;;2.05;1.52;;;36.90;27.70;;;;;;4300696;33;20087;-38
2021/07/09 07:38:06;;;;;;;3.10;2.08;;;36.90;27.60;;;;;;4313016;33;20068;-38
2021/07/09 07:40:35;;;;;;;2.35;2.15;;;37.00;27.60;;;;;;4284025;33;20068;-38
2021/07/09 07:43:01;;;;;;;4.62;3.10;;;37.10;27.30;;;;;;4284202;33;20208;-38
2021/07/09 07:45:28;;;;;;;9.45;2.55;;;37.10;27.00;;;;;;4283913;33;20060;-37
2021/07/09 07:47:55;;;;;;;3.92;2.37;;;37.10;27.00;;;;;;4309735;33;20123;-38
2021/07/09 07:50:21;;;;;;;4.68;1.73;;;37.20;26.90;;;;;;4313215;33;20109;-38
2021/07/09 07:52:49;;;;;;;5.62;3.30;;;37.10;26.70;;;;;;4313076;33;20551;-38
2021/07/09 07:55:16;;;;;;;4.53;2.35;;;37.20;26.90;;;;;;4312905;33;20558;-37
2021/07/09 07:57:43;;;;;;;6.82;3.83;;;37.30;26.90;;;;;;4305475;33;20530;-39
2021/07/09 08:00:11;;;;;;;3.70;2.67;;;37.20;26.30;;;;;;4327644;33;20073;-38
2021/07/09 08:02:37;;;;;;;2.53;2.22;;;37.20;26.30;;;;;;4327214;33;20097;-39
2021/07/09 08:05:05;;;;;;;2.20;1.23;;;37.40;26.40;;;;;;4327404;33;20149;-40
2021/07/09 08:07:32;;;;;;;3.17;1.77;;;37.50;26.00;;;;;;4315112;33;20535;-38
2021/07/09 08:09:58;;;;;;;4.65;2.42;;;37.50;26.00;;;;;;4327723;33;20094;-38
2021/07/09 08:12:25;;;;;;;8.57;2.08;;;37.60;25.90;;;;;;4341624;33;20623;-39
2021/07/09 08:14:51;;;;;;;2.67;2.00;;;37.60;26.10;;;;;;4344732;33;20067;-39
2021/07/09 08:17:18;;;;;;;2.78;1.80;;;37.70;26.00;;;;;;4344443;33;20109;-39
2021/07/09 08:19:44;;;;;;;2.60;2.03;;;37.60;25.60;;;;;;4344352;33;20073;-38
2021/07/09 08:22:11;;;;;;;2.85;1.98;;;37.60;25.60;;;;;;4344597;33;20078;-38
2021/07/09 08:24:37;;;;;;;2.22;1.27;;;37.60;25.60;;;;;;4344336;33;20075;-38
2021/07/09 08:27:04;;;;;;;4.22;1.92;;;37.40;25.70;;;;;;4343961;33;20087;-38
2021/07/09 08:29:31;;;;;;;6.40;2.50;;;37.40;25.60;;;;;;4344085;33;20129;-37
2021/07/09 08:31:58;;;;;;;4.25;2.62;;;37.50;25.90;;;;;;4344450;33;20051;-39
2021/07/09 08:34:24;;;;;;;1.73;1.08;;;37.40;25.70;;;;;;4344487;33;20147;-38
2021/07/09 08:36:51;;;;;;;5.15;2.72;;;37.50;25.70;;;;;;4330588;33;20073;-38
2021/07/09 08:39:17;;;;;;;2.87;1.85;;;37.60;25.60;;;;;;4344343;33;20557;-37
2021/07/09 08:41:45;;;;;;;4.12;2.87;;;37.60;25.30;;;;;;4342274;33;20071;-37
2021/07/09 08:44:12;;;;;;;6.22;2.50;;;37.70;25.20;;;;;;4342974;33;20110;-39
2021/07/09 08:46:39;;;;;;;5.68;2.45;;;37.80;24.90;;;;;;4317388;33;20090;-38
2021/07/09 08:49:07;;;;;;;4.95;2.40;;;37.90;24.80;;;;;;4330338;33;20539;-37
2021/07/09 08:51:35;;;;;;;3.75;2.20;;;37.80;24.80;;;;;;4285239;33;20072;-38
2021/07/09 08:54:02;;;;;;;2.42;1.30;;;37.90;25.00;;;;;;4285860;33;20131;-37
2021/07/09 08:56:28;;;;;;;3.87;2.30;;;37.90;24.90;;;;;;4297591;33;20075;-38
2021/07/09 08:58:54;;;;;;;1.77;1.67;;;37.80;24.70;;;;;;4297523;33;20075;-37
2021/07/09 09:01:21;;;;;;;6.10;2.70;;;37.80;24.80;;;;;;4297563;33;20570;-38
2021/07/09 09:03:47;;;;;;;1.37;0.98;;;37.90;24.60;;;;;;4296985;33;20161;-38
2021/07/09 09:06:16;;;;;;;4.00;1.75;;;38.10;24.80;;;;;;4284855;33;20533;-39
2021/07/09 09:08:43;;;;;;;3.62;2.25;;;38.20;24.80;;;;;;4285503;33;20185;-37
2021/07/09 09:11:10;;;;;;;2.55;1.50;;;37.90;24.80;;;;;;4297006;33;20064;-38
2021/07/09 09:13:37;;;;;;;4.37;2.47;;;37.90;25.20;;;;;;4297413;33;20087;-38
2021/07/09 09:16:15;;;;;;;3.03;2.72;;;38.00;25.30;;;;;;4297115;33;20531;-37
2021/07/09 09:18:47;;;;;;;3.95;2.90;;;37.90;24.80;;;;;;4297272;33;20067;-36
2021/07/09 09:21:17;;;;;;;4.65;2.12;;;37.90;24.60;;;;;;4297388;33;20092;-39
2021/07/09 09:23:50;;;;;;;4.60;1.87;;;37.70;24.60;;;;;;4296938;33;20076;-39
2021/07/09 09:26:50;;;;;;;3.10;2.12;;;37.60;24.80;;;;;;4297579;33;20084;-37
2021/07/09 09:29:36;;;;;;;1.80;1.40;;;37.60;24.80;;;;;;4325025;33;20059;-38
2021/07/09 09:32:06;;;;;;;4.50;1.65;;;37.70;24.90;;;;;;4329497;33;20055;-38
2021/07/09 09:34:44;;;;;;;3.42;2.83;;;37.80;24.70;;;;;;4299123;33;20174;-37
2021/07/09 09:37:21;;;;;;;1.20;1.02;;;37.60;24.80;;;;;;4310946;33;20071;-38
2021/07/09 09:39:48;;;;;;;2.42;1.67;;;37.60;25.00;;;;;;4311554;33;20075;-37
2021/07/09 09:42:23;;;;;;;3.62;3.03;;;37.60;25.10;;;;;;4311584;33;20091;-38
2021/07/09 09:44:59;;;;;;;5.87;1.60;;;37.60;24.80;;;;;;4300099;33;20068;-39
2021/07/09 09:47:30;;;;;;;3.33;1.50;;;37.60;24.90;;;;;;4311370;33;20544;-38
2021/07/09 09:49:58;;;;;;;2.22;1.17;;;37.60;24.50;;;;;;4311384;33;20078;-37
2021/07/09 09:52:41;;;;;;;6.80;2.00;;;37.80;24.70;;;;;;4310817;33;20083;-38
2021/07/09 09:55:09;;;;;;;3.97;1.77;;;38.00;24.80;;;;;;4299261;33;20091;-37
2021/07/09 09:57:37;;;;;;;3.30;1.75;;;37.90;24.90;;;;;;4311201;33;20090;-39
2021/07/09 10:00:10;;;;;;;1.80;1.02;;;38.00;24.90;;;;;;4310936;33;20060;-39
2021/07/09 10:02:37;;;;;;;3.37;2.17;;;38.00;24.60;;;;;;4311394;33;20059;-37
2021/07/09 10:05:04;;;;;;;1.42;1.27;;;38.10;24.80;;;;;;4304926;33;20066;-38
2021/07/09 10:07:35;;;;;;;6.28;2.15;;;38.20;24.80;;;;;;4343146;33;20160;-38
2021/07/09 10:10:06;;;;;;;2.55;1.15;;;38.30;24.60;;;;;;4317802;33;20071;-37
2021/07/09 10:12:32;;;;;;;1.62;1.12;;;38.30;24.30;;;;;;4343023;33;20061;-38
2021/07/09 10:14:59;;;;;;;1.35;0.95;;;38.40;24.40;;;;;;4317280;33;20146;-38
2021/07/09 10:17:27;;;;;;;5.95;2.10;;;38.40;24.40;;;;;;4329411;33;20082;-38
2021/07/09 10:19:54;;;;;;;5.47;2.75;;;38.50;24.40;;;;;;4329298;33;20065;-39
2021/07/09 10:22:21;;;;;;;2.90;2.58;;;38.70;24.50;;;;;;4343097;33;20154;-38
2021/07/09 10:24:51;;;;;;;1.70;1.08;;;38.70;24.80;;;;;;4342969;33;20626;-38
2021/07/09 10:27:25;;;;;;;5.68;2.25;;;38.70;24.60;;;;;;4329236;33;20071;-38
2021/07/09 10:29:54;;;;;;;2.28;1.67;;;38.70;24.70;;;;;;4343037;33;20168;-37
2021/07/09 10:32:32;;;;;;;2.10;1.70;;;38.70;24.70;;;;;;4342521;33;20065;-38
2021/07/09 10:34:58;;;;;;;1.85;1.67;;;38.70;24.70;;;;;;4342517;33;20059;-38
2021/07/09 10:37:29;;;;;;;2.10;1.45;;;38.70;24.50;;;;;;4342424;33;20500;-38
2021/07/09 10:40:14;;;;;;;1.62;1.37;;;38.70;24.40;;;;;;4343108;33;20543;-37
2021/07/09 10:42:46;;;;;;;4.70;1.77;;;38.50;24.40;;;;;;4329390;33;20077;-37
2021/07/09 10:45:26;;;;;;;3.53;3.03;;;38.50;24.10;;;;;;4342546;33;20535;-39
2021/07/09 10:48:16;;;;;;;2.95;1.42;;;38.40;24.20;;;;;;4342690;33;20453;-38
2021/07/09 10:50:53;;;;;;;2.28;1.05;;;38.40;24.30;;;;;;4329213;33;20048;-38
2021/07/09 10:53:26;;;;;;;3.20;2.25;;;38.50;24.50;;;;;;4329197;33;20259;-38
2021/07/09 10:56:08;;;;;;;3.47;2.15;;;38.60;24.40;;;;;;4342911;33;20054;-38
2021/07/09 10:58:47;;;;;;;2.95;1.33;;;38.60;24.30;;;;;;4341379;33;20078;-38
2021/07/09 11:01:32;;;;;;;2.33;1.98;;;38.60;24.60;;;;;;4343064;33;20087;-39
2021/07/09 11:04:14;;;;;;;4.68;1.37;;;38.50;24.50;;;;;;4342984;33;20468;-38
2021/07/09 11:06:43;;;;;;;5.55;1.40;;;38.50;24.60;;;;;;4328994;33;20082;-39
2021/07/09 11:09:13;;;;;;;5.82;1.62;;;38.50;24.20;;;;;;4343362;33;20059;-38
2021/07/09 11:11:50;;;;;;;1.60;1.33;;;38.50;24.20;;;;;;4345496;33;20148;-38
2021/07/09 11:14:36;;;;;;;2.22;1.00;;;38.70;24.30;;;;;;4345129;33;20066;-39
2021/07/09 11:17:21;;;;;;;2.45;0.95;;;38.80;23.60;;;;;;4345432;33;20065;-38
2021/07/09 11:19:48;;;;;;;4.12;1.58;;;38.80;23.50;;;;;;4344980;33;20541;-37
2021/07/09 11:22:14;;;;;;;3.12;2.65;;;38.70;23.80;;;;;;4345390;33;20063;-38
2021/07/09 11:24:51;;;;;;;2.70;2.15;;;38.80;24.10;;;;;;4345145;33;20087;-38
2021/07/09 11:27:18;;;;;;;4.28;1.83;;;38.80;24.00;;;;;;4345018;33;20101;-37
2021/07/09 11:29:46;;;;;;;0.70;0.60;;;38.90;23.50;;;;;;4345166;33;20082;-37
2021/07/09 11:32:22;;;;;;;1.40;1.00;;;38.80;23.30;;;;;;4344820;33;20547;-37
2021/07/09 11:34:56;;;;;;;1.70;1.40;;;38.70;23.50;;;;;;4344642;33;20523;-38
2021/07/09 11:37:27;;;;;;;1.65;0.95;;;38.70;23.60;;;;;;4331607;33;20539;-37
2021/07/09 11:39:59;;;;;;;2.10;1.30;;;38.80;23.70;;;;;;4331839;33;20610;-38
2021/07/09 11:42:33;;;;;;;2.17;1.23;;;38.90;23.80;;;;;;4344690;33;20115;-39
2021/07/09 11:45:03;;;;;;;1.77;1.30;;;38.80;23.80;;;;;;4344983;33;20204;-38
2021/07/09 11:47:34;;;;;;;3.55;2.42;;;38.80;23.90;;;;;;4344741;33;20067;-38
2021/07/09 11:50:02;;;;;;;1.35;1.25;;;38.70;24.10;;;;;;4344788;33;20494;-39
2021/07/09 11:52:34;;;;;;;6.28;2.60;;;38.90;24.20;;;;;;4345014;33;20138;-39
2021/07/09 11:55:09;;;;;;;1.98;1.48;;;38.90;24.00;;;;;;4331319;33;20095;-39
2021/07/09 11:57:37;;;;;;;1.12;0.60;;;39.00;23.90;;;;;;4330977;33;20512;-38
2021/07/09 12:00:07;;;;;;;1.73;1.30;;;39.10;23.90;;;;;;4345045;33;20066;-38
2021/07/09 12:02:34;;;;;;;3.87;3.00;;;39.10;23.80;;;;;;4344707;33;20220;-38
2021/07/09 12:05:04;;;;;;;2.33;1.40;;;39.00;23.50;;;;;;4344723;33;20114;-38
2021/07/09 12:07:38;;;;;;;8.25;3.65;;;38.90;23.50;;;;;;4315718;33;20201;-37
2021/07/09 12:10:16;;;;;;;6.43;2.62;;;38.60;23.60;;;;;;4330023;33;20069;-38
2021/07/09 12:12:53;;;;;;;1.87;1.25;;;38.50;23.90;;;;;;4330028;33;20063;-37
2021/07/09 12:15:31;;;;;;;1.80;1.45;;;38.50;24.00;;;;;;4329887;33;20055;-37
2021/07/09 12:18:05;;;;;;;3.75;2.60;;;38.60;24.00;;;;;;4329300;33;20063;-37
2021/07/09 12:20:33;;;;;;;2.95;1.95;;;38.70;23.90;;;;;;4327994;33;21076;-39
2021/07/09 12:23:02;;;;;;;2.12;1.52;;;38.60;24.00;;;;;;4329779;33;20078;-38
2021/07/09 12:25:35;;;;;;;4.07;1.73;;;38.50;23.80;;;;;;4329621;33;20075;-38
2021/07/09 12:28:07;;;;;;;2.15;1.37;;;38.60;23.80;;;;;;4316637;33;20077;-37
2021/07/09 12:30:45;;;;;;;3.83;1.85;;;38.50;23.80;;;;;;4329559;33;20055;-38
2021/07/09 12:33:17;;;;;;;5.93;1.70;;;38.60;24.00;;;;;;4329902;33;20150;-37
2021/07/09 12:35:43;;;;;;;2.87;1.40;;;38.70;23.90;;;;;;4329543;33;20078;-37
2021/07/09 12:38:12;;;;;;;3.65;2.05;;;38.50;23.80;;;;;;4316316;33;20214;-36
2021/07/09 12:40:44;;;;;;;2.45;1.15;;;38.50;23.70;;;;;;4329415;33;20071;-37
2021/07/09 12:43:25;;;;;;;2.95;2.25;;;38.30;23.70;;;;;;4316091;33;20056;-36
2021/07/09 12:46:01;;;;;;;4.60;1.62;;;38.20;23.90;;;;;;4311733;33;20133;-38
2021/07/09 12:48:40;;;;;;;2.00;1.05;;;38.10;24.00;;;;;;4312090;33;20484;-37
2021/07/09 12:51:21;;;;;;;2.90;2.22;;;38.10;24.20;;;;;;4311924;33;20155;-37
2021/07/09 12:54:04;;;;;;;4.20;2.30;;;38.10;24.20;;;;;;4311972;33;20610;-37